This is the latest recevied weather packets stored in our database for station/object WB9ZLM. If no packets are shown the sender has not sent any weather packets the latest 10 day(s).
| Time | Temp. | Humidity | Pressure | Rain* | Wind** | Luminosity | Snow |
|---|---|---|---|---|---|---|---|
| 1777753921 | 14.44° C | 35% | 1020.9 hPa | 0 mm | - | - | - |
| 1777753860 | 14.44° C | 35% | 1020.9 hPa | 0 mm | - | - | - |
| 1777753021 | 14.44° C | 34% | 1021.2 hPa | 0 mm | - | - | - |
| 1777752960 | 14.44° C | 34% | 1021.2 hPa | 0 mm | - | - | - |
| 1777752121 | 13.89° C | 35% | 1021.3 hPa | 0 mm | - | - | - |
| 1777752060 | 13.89° C | 35% | 1021.3 hPa | 0 mm | - | - | - |
| 1777751221 | 13.33° C | 34% | 1021.4 hPa | 0 mm | - | - | - |
| 1777751160 | 13.33° C | 34% | 1021.4 hPa | 0 mm | - | - | - |
| 1777750322 | 13.33° C | 37% | 1021.5 hPa | 0 mm | - | - | - |
| 1777750260 | 13.33° C | 37% | 1021.5 hPa | 0 mm | - | - | - |
| 1777749421 | 13.33° C | 37% | 1021.7 hPa | 0 mm | - | - | - |
| 1777749361 | 13.33° C | 37% | 1021.7 hPa | 0 mm | - | - | - |
| 1777748521 | 12.78° C | 37% | 1021.8 hPa | 0 mm | - | - | - |
| 1777748460 | 12.78° C | 37% | 1021.8 hPa | 0 mm | - | - | - |
| 1777747622 | 12.78° C | 36% | 1021.9 hPa | 0 mm | - | - | - |
| 1777747560 | 12.78° C | 36% | 1021.9 hPa | 0 mm | - | - | - |
| 1777746721 | 12.22° C | 38% | 1021.9 hPa | 0 mm | - | - | - |
| 1777746661 | 12.22° C | 38% | 1021.9 hPa | 0 mm | - | - | - |
| 1777745760 | 12.22° C | 36% | 1014.1 hPa | 0 mm | - | - | - |
| 1777745131 | 12.22° C | 38% | 1022.1 hPa | 0 mm | - | - | - |
| 1777744922 | 12.22° C | 38% | 1022.1 hPa | 0 mm | - | - | - |
| 1777744861 | 12.22° C | 38% | 1022.1 hPa | 0 mm | - | - | - |
| 1777744021 | 12.22° C | 37% | 1022.3 hPa | 0 mm | - | - | - |
| 1777743960 | 12.22° C | 37% | 1022.3 hPa | 0 mm | - | - | - |
| 1777743121 | 11.67° C | 37% | 1022.4 hPa | 0 mm | - | - | - |
* Rain latest hour (hover to see other rain measurements)
** Current wind speed in m/s (hover to see current wind gust speed)